createdAt,value
2018-06-05T00:00:00.780Z,0.00
2018-06-05T00:01:07.307Z,0.00
2018-06-05T00:02:13.757Z,0.00
2018-06-05T00:03:20.222Z,0.00
2018-06-05T00:04:26.719Z,0.00
2018-06-05T00:05:34.188Z,0.00
2018-06-05T00:06:39.685Z,0.00
2018-06-05T00:07:46.138Z,0.00
2018-06-05T00:08:52.616Z,0.00
2018-06-05T00:09:59.109Z,0.00
2018-06-05T00:11:06.104Z,0.00
2018-06-05T00:12:12.055Z,0.00
2018-06-05T00:13:19.022Z,0.00
2018-06-05T00:14:25.527Z,0.00
2018-06-05T00:15:31.969Z,0.00
2018-06-05T00:16:38.574Z,0.00
2018-06-05T00:17:44.937Z,0.00
2018-06-05T00:18:51.410Z,0.00
2018-06-05T00:19:57.878Z,0.00
2018-06-05T00:21:03.891Z,0.00
2018-06-05T00:22:10.345Z,0.00
2018-06-05T00:23:17.292Z,0.00
2018-06-05T00:24:23.288Z,0.00
2018-06-05T00:25:30.256Z,0.00
2018-06-05T00:26:36.251Z,0.00
2018-06-05T00:27:42.689Z,0.00
2018-06-05T00:28:49.646Z,0.00
2018-06-05T00:29:55.638Z,0.00
2018-06-05T00:31:02.637Z,0.00
2018-06-05T00:32:08.585Z,0.00
2018-06-05T00:33:15.054Z,0.00
2018-06-05T00:34:21.531Z,0.00
2018-06-05T00:35:28.493Z,0.00
2018-06-05T00:36:34.588Z,0.00
2018-06-05T00:37:41.421Z,0.00
2018-06-05T00:38:47.393Z,0.00
2018-06-05T00:39:53.858Z,0.00
2018-06-05T00:41:00.356Z,0.00
2018-06-05T00:42:07.299Z,0.00
2018-06-05T00:43:13.777Z,0.00
2018-06-05T00:44:19.752Z,0.00
2018-06-05T00:45:26.215Z,0.00
2018-06-05T00:46:32.703Z,0.00
2018-06-05T00:47:39.638Z,0.00
2018-06-05T00:48:47.111Z,0.00
2018-06-05T00:49:52.084Z,0.00
2018-06-05T00:50:59.059Z,0.00
2018-06-05T00:52:05.508Z,0.00
2018-06-05T00:53:11.493Z,0.00
2018-06-05T00:54:18.561Z,0.00
2018-06-05T00:55:24.408Z,0.00
2018-06-05T00:56:31.407Z,0.00
2018-06-05T00:57:37.836Z,0.00
2018-06-05T00:58:45.290Z,0.00
2018-06-05T00:59:50.752Z,0.00
2018-06-05T01:00:56.728Z,0.00
2018-06-05T01:02:03.225Z,0.00
2018-06-05T01:03:09.655Z,0.00
2018-06-05T01:04:16.117Z,0.00
2018-06-05T01:05:22.599Z,0.00
2018-06-05T01:06:29.079Z,0.00
2018-06-05T01:07:35.510Z,0.00
2018-06-05T01:08:42.561Z,0.00
2018-06-05T01:09:48.934Z,0.00
2018-06-05T01:10:55.391Z,0.00
2018-06-05T01:12:01.869Z,0.00
2018-06-05T01:13:08.316Z,0.00
2018-06-05T01:14:14.770Z,0.00
2018-06-05T01:15:21.235Z,0.00
2018-06-05T01:16:27.720Z,0.00
2018-06-05T01:17:34.146Z,0.00
2018-06-05T01:18:40.104Z,0.00
2018-06-05T01:19:47.057Z,0.00
2018-06-05T01:20:53.023Z,0.00
2018-06-05T01:22:00.012Z,0.00
2018-06-05T01:23:06.547Z,0.00
2018-06-05T01:24:12.400Z,0.00
2018-06-05T01:25:19.349Z,0.00
2018-06-05T01:26:25.846Z,0.00
2018-06-05T01:27:32.258Z,0.00
2018-06-05T01:28:38.715Z,0.00
2018-06-05T01:29:44.709Z,0.00
2018-06-05T01:30:51.635Z,0.00
2018-06-05T01:31:58.121Z,0.00
2018-06-05T01:33:04.061Z,0.00
2018-06-05T01:34:11.006Z,0.00
2018-06-05T01:35:17.452Z,0.00
2018-06-05T01:36:23.441Z,0.00
2018-06-05T01:37:30.358Z,0.00
2018-06-05T01:38:36.815Z,0.00
2018-06-05T01:39:44.256Z,0.00
2018-06-05T01:40:49.224Z,0.00
2018-06-05T01:41:55.689Z,0.00
2018-06-05T01:43:02.629Z,0.00
2018-06-05T01:44:09.565Z,0.00
2018-06-05T01:45:15.516Z,0.00
2018-06-05T01:46:21.988Z,0.00
2018-06-05T01:47:27.920Z,0.00
2018-06-05T01:48:34.372Z,0.00
2018-06-05T01:49:41.324Z,0.00
2018-06-05T01:50:47.274Z,0.00
2018-06-05T01:51:53.749Z,0.00
2018-06-05T01:53:00.649Z,0.00
2018-06-05T01:54:07.115Z,0.00
2018-06-05T01:55:13.554Z,0.00
2018-06-05T01:56:19.513Z,0.00
2018-06-05T01:57:26.580Z,0.00
2018-06-05T01:58:32.416Z,0.00
2018-06-05T01:59:39.354Z,0.00
2018-06-05T02:00:45.506Z,0.00
2018-06-05T02:01:51.792Z,0.00
2018-06-05T02:02:58.214Z,0.00
2018-06-05T02:04:04.680Z,0.00
2018-06-05T02:05:11.108Z,0.00
2018-06-05T02:06:18.554Z,0.00
2018-06-05T02:07:24.581Z,0.00
2018-06-05T02:08:31.443Z,0.00
2018-06-05T02:09:36.911Z,0.00
2018-06-05T02:10:43.346Z,0.00
2018-06-05T02:11:49.818Z,0.00
2018-06-05T02:12:56.244Z,0.00
2018-06-05T02:14:03.213Z,0.00
2018-06-05T02:15:09.132Z,0.00
2018-06-05T02:16:17.065Z,0.00
2018-06-05T02:17:22.562Z,0.00
2018-06-05T02:18:28.572Z,0.00
2018-06-05T02:19:35.407Z,0.00
2018-06-05T02:20:41.353Z,0.00
2018-06-05T02:21:47.828Z,0.00
2018-06-05T02:22:54.242Z,0.00
2018-06-05T02:24:00.687Z,0.00
2018-06-05T02:25:07.641Z,0.00
2018-06-05T02:26:13.557Z,0.00
2018-06-05T02:27:20.037Z,0.00
2018-06-05T02:28:26.548Z,0.00
2018-06-05T02:29:32.897Z,0.00
2018-06-05T02:30:40.332Z,0.00
2018-06-05T02:31:46.304Z,0.00
2018-06-05T02:32:52.245Z,0.00
2018-06-05T02:33:59.148Z,4.00
2018-06-05T02:35:05.599Z,4.00
2018-06-05T02:36:12.044Z,4.00
2018-06-05T02:37:18.595Z,0.00
2018-06-05T02:38:25.211Z,0.00
2018-06-05T02:39:30.853Z,4.00
2018-06-05T02:40:37.291Z,4.00
2018-06-05T02:41:43.761Z,8.00
2018-06-05T02:42:51.192Z,4.00
2018-06-05T02:43:56.610Z,8.00
2018-06-05T02:45:03.552Z,4.00
2018-06-05T02:46:09.483Z,8.00
2018-06-05T02:47:16.441Z,8.00
2018-06-05T02:48:22.856Z,12.00
2018-06-05T02:49:29.279Z,16.00
2018-06-05T02:50:35.713Z,12.00
2018-06-05T02:51:41.653Z,20.00
2018-06-05T02:52:48.638Z,20.00
2018-06-05T02:53:54.566Z,24.00
2018-06-05T02:55:00.952Z,32.00
2018-06-05T02:56:07.387Z,36.00
2018-06-05T02:57:14.327Z,40.00
2018-06-05T02:58:20.738Z,44.00
2018-06-05T02:59:27.168Z,52.00
2018-06-05T03:00:33.612Z,60.00
2018-06-05T03:01:39.544Z,64.00
2018-06-05T03:02:45.992Z,76.00
2018-06-05T03:03:52.893Z,88.00
2018-06-05T03:04:58.878Z,100.00
2018-06-05T03:06:05.755Z,112.00
2018-06-05T03:07:11.722Z,124.00
2018-06-05T03:08:18.140Z,140.00
2018-06-05T03:09:25.056Z,156.00
2018-06-05T03:10:30.978Z,176.00
2018-06-05T03:11:37.410Z,192.00
2018-06-05T03:12:44.372Z,212.00
2018-06-05T03:13:50.787Z,236.00
2018-06-05T03:14:56.694Z,256.00
2018-06-05T03:16:03.678Z,280.00
2018-06-05T03:17:10.595Z,304.00
2018-06-05T03:18:16.005Z,332.00
2018-06-05T03:19:22.925Z,360.00
2018-06-05T03:20:28.857Z,388.00
2018-06-05T03:21:35.780Z,420.00
2018-06-05T03:22:42.235Z,452.00
2018-06-05T03:23:48.138Z,484.00
2018-06-05T03:24:56.058Z,524.00
2018-06-05T03:26:01.489Z,560.00
2018-06-05T03:27:07.945Z,596.00
2018-06-05T03:28:14.360Z,636.00
2018-06-05T03:29:20.284Z,680.00
2018-06-05T03:30:26.707Z,716.00
2018-06-05T03:31:33.156Z,764.00
2018-06-05T03:32:40.094Z,808.00
2018-06-05T03:33:46.540Z,852.00
2018-06-05T03:34:52.423Z,896.00
2018-06-05T03:35:58.857Z,944.00
2018-06-05T03:37:05.289Z,992.00
2018-06-05T03:38:11.738Z,1044.00
2018-06-05T03:39:18.149Z,1092.00
2018-06-05T03:40:24.588Z,1144.00
2018-06-05T03:41:31.002Z,1196.00
2018-06-05T03:42:37.501Z,1248.00
2018-06-05T03:43:44.378Z,1304.00
2018-06-05T03:44:50.805Z,1356.00
2018-06-05T03:45:57.223Z,1408.00
2018-06-05T03:47:03.652Z,1460.00
2018-06-05T03:48:10.107Z,1516.00
2018-06-05T03:49:16.023Z,1568.00
2018-06-05T03:50:22.575Z,1616.00
2018-06-05T03:51:29.395Z,1672.00
2018-06-05T03:52:35.830Z,1716.00
2018-06-05T03:53:41.928Z,1772.00
2018-06-05T03:54:48.168Z,1824.00
2018-06-05T03:55:54.627Z,1884.00
2018-06-05T03:57:01.536Z,1940.00
2018-06-05T03:58:07.486Z,2000.00
2018-06-05T03:59:13.884Z,2060.00
2018-06-05T04:00:20.330Z,2120.00
2018-06-05T04:01:27.301Z,2184.00
2018-06-05T04:02:33.712Z,2240.00
2018-06-05T04:03:39.608Z,2300.00
2018-06-05T04:04:46.048Z,2360.00
2018-06-05T04:05:52.478Z,2412.00
2018-06-05T04:06:58.907Z,2472.00
2018-06-05T04:08:05.375Z,2532.00
2018-06-05T04:09:11.790Z,2592.00
2018-06-05T04:10:18.211Z,2660.00
2018-06-05T04:11:24.658Z,2720.00
2018-06-05T04:12:31.126Z,2784.00
2018-06-05T04:13:38.022Z,2852.00
2018-06-05T04:14:43.988Z,2916.00
2018-06-05T04:15:50.403Z,2976.00
2018-06-05T04:16:56.827Z,3032.00
2018-06-05T04:18:03.296Z,3092.00
2018-06-05T04:19:10.211Z,3148.00
2018-06-05T04:20:16.161Z,3208.00
2018-06-05T04:21:23.089Z,3264.00
2018-06-05T04:22:29.564Z,3336.00
2018-06-05T04:23:35.499Z,3404.00
2018-06-05T04:24:42.402Z,3480.00
2018-06-05T04:25:48.365Z,3544.00
2018-06-05T04:26:54.852Z,3608.00
2018-06-05T04:28:01.271Z,3672.00
2018-06-05T04:29:07.676Z,3716.00
2018-06-05T04:30:14.132Z,3780.00
2018-06-05T04:31:21.056Z,3832.00
2018-06-05T04:32:27.511Z,3876.00
2018-06-05T04:33:33.482Z,3920.00
2018-06-05T04:34:39.894Z,3972.00
2018-06-05T04:35:46.344Z,4028.00
2018-06-05T04:36:53.277Z,4080.00
2018-06-05T04:37:59.253Z,4136.00
2018-06-05T04:39:05.688Z,4196.00
2018-06-05T04:40:12.616Z,4248.00
2018-06-05T04:41:18.584Z,4292.00
2018-06-05T04:42:25.521Z,4344.00
2018-06-05T04:43:31.992Z,4412.00
2018-06-05T04:44:37.913Z,4472.00
2018-06-05T04:45:44.360Z,4524.00
2018-06-05T04:46:50.800Z,4580.00
2018-06-05T04:47:57.290Z,4616.00
2018-06-05T04:49:04.204Z,4688.00
2018-06-05T04:50:10.147Z,4720.00
2018-06-05T04:51:16.604Z,4756.00
2018-06-05T04:52:23.556Z,4836.00
2018-06-05T04:53:29.530Z,4904.00
2018-06-05T04:54:36.548Z,4960.00
2018-06-05T04:55:42.911Z,5004.00
2018-06-05T04:56:49.388Z,5028.00
2018-06-05T04:57:55.335Z,5084.00
2018-06-05T04:59:01.774Z,5136.00
2018-06-05T05:00:08.741Z,5180.00
2018-06-05T05:01:15.185Z,5236.00
2018-06-05T05:02:21.191Z,5276.00
2018-06-05T05:03:28.159Z,5344.00
2018-06-05T05:04:34.069Z,5384.00
2018-06-05T05:05:41.007Z,5468.00
2018-06-05T05:06:46.983Z,5524.00
2018-06-05T05:07:53.443Z,5608.00
2018-06-05T05:09:01.415Z,5696.00
2018-06-05T05:10:06.374Z,5704.00
2018-06-05T05:11:12.836Z,5784.00
2018-06-05T05:12:20.776Z,5808.00
2018-06-05T05:13:26.265Z,5892.00
2018-06-05T05:14:32.210Z,5960.00
2018-06-05T05:15:38.677Z,6024.00
2018-06-05T05:16:46.147Z,6156.00
2018-06-05T05:17:52.112Z,6168.00
2018-06-05T05:18:58.107Z,6240.00
2018-06-05T05:20:05.077Z,6352.00
2018-06-05T05:21:11.008Z,6416.00
2018-06-05T05:22:17.490Z,6516.00
2018-06-05T05:23:23.977Z,6608.00
2018-06-05T05:24:30.416Z,6588.00
2018-06-05T05:25:37.388Z,6616.00
2018-06-05T05:26:43.862Z,6704.00
2018-06-05T05:27:49.826Z,6760.00
2018-06-05T05:28:56.333Z,6968.00
2018-06-05T05:30:03.268Z,7008.00
2018-06-05T05:31:09.738Z,6952.00
2018-06-05T05:32:16.228Z,7112.00
2018-06-05T05:33:22.221Z,7072.00
2018-06-05T05:34:28.689Z,7100.00
2018-06-05T05:35:35.640Z,7292.00
2018-06-05T05:36:41.632Z,7284.00
2018-06-05T05:37:48.117Z,7316.00
2018-06-05T05:38:55.593Z,7316.00
2018-06-05T05:40:01.057Z,7484.00
2018-06-05T05:41:07.528Z,7416.00
2018-06-05T05:42:14.562Z,7364.00
2018-06-05T05:43:20.512Z,7516.00
2018-06-05T05:44:26.974Z,7704.00
2018-06-05T05:45:33.943Z,7712.00
2018-06-05T05:46:39.926Z,7668.00
2018-06-05T05:47:46.410Z,7792.00
2018-06-05T05:48:53.413Z,8284.00
2018-06-05T05:50:00.388Z,8128.00
2018-06-05T05:51:05.863Z,8076.00
2018-06-05T05:52:12.343Z,8824.00
2018-06-05T05:53:18.869Z,8248.00
2018-06-05T05:54:25.334Z,8196.00
2018-06-05T05:55:31.814Z,8628.00
2018-06-05T05:56:38.287Z,8560.00
2018-06-05T05:57:45.288Z,8576.00
2018-06-05T05:58:51.789Z,8300.00
2018-06-05T05:59:57.750Z,9172.00
2018-06-05T06:01:04.251Z,8632.00
2018-06-05T06:02:10.742Z,8728.00
2018-06-05T06:03:17.211Z,8684.00
2018-06-05T06:04:23.729Z,9196.00
2018-06-05T06:05:30.196Z,9068.00
2018-06-05T06:06:36.705Z,8776.00
2018-06-05T06:07:43.183Z,9704.00
2018-06-05T06:08:49.714Z,9040.00
2018-06-05T06:09:56.678Z,8768.00
2018-06-05T06:11:03.172Z,9544.00
2018-06-05T06:12:09.187Z,10364.00
2018-06-05T06:13:16.173Z,10700.00
2018-06-05T06:14:22.203Z,10320.00
2018-06-05T06:15:29.173Z,10348.00
2018-06-05T06:16:35.712Z,9368.00
2018-06-05T06:17:41.709Z,9812.00
2018-06-05T06:18:48.261Z,9672.00
2018-06-05T06:19:54.726Z,9228.00
2018-06-05T06:21:01.735Z,9512.00
2018-06-05T06:22:07.758Z,9100.00
2018-06-05T06:23:14.778Z,9388.00
2018-06-05T06:24:20.798Z,9588.00
2018-06-05T06:25:27.802Z,9244.00
2018-06-05T06:26:33.821Z,10160.00
2018-06-05T06:27:40.827Z,9328.00
2018-06-05T06:28:47.882Z,9208.00
2018-06-05T06:29:53.378Z,9408.00
2018-06-05T06:30:59.898Z,10188.00
2018-06-05T06:32:06.907Z,10204.00
2018-06-05T06:33:12.936Z,10280.00
2018-06-05T06:34:19.491Z,10880.00
2018-06-05T06:35:26.000Z,10720.00
2018-06-05T06:36:32.525Z,9136.00
2018-06-05T06:37:39.549Z,9856.00
2018-06-05T06:38:46.113Z,9984.00
2018-06-05T06:39:52.650Z,9440.00
2018-06-05T06:40:59.169Z,9120.00
2018-06-05T06:42:05.735Z,9824.00
2018-06-05T06:43:11.786Z,10992.00
2018-06-05T06:44:18.337Z,10424.00
2018-06-05T06:45:24.857Z,9888.00
2018-06-05T06:46:31.407Z,9500.00
2018-06-05T06:47:38.545Z,9280.00
2018-06-05T06:48:44.527Z,9188.00
2018-06-05T06:49:51.042Z,8868.00
2018-06-05T06:50:58.087Z,8968.00
2018-06-05T06:52:04.137Z,8936.00
2018-06-05T06:53:10.690Z,8860.00
2018-06-05T06:54:17.739Z,8820.00
2018-06-05T06:55:23.777Z,8804.00
2018-06-05T06:56:30.326Z,8800.00
2018-06-05T06:57:37.365Z,8652.00
2018-06-05T06:58:43.941Z,8684.00
2018-06-05T06:59:49.952Z,8712.00
2018-06-05T07:00:57.008Z,8752.00
2018-06-05T07:02:03.553Z,8816.00
2018-06-05T07:03:10.120Z,8980.00
2018-06-05T07:04:16.233Z,9036.00
2018-06-05T07:05:23.209Z,8912.00
2018-06-05T07:06:29.262Z,8888.00
2018-06-05T07:07:35.818Z,8860.00
2018-06-05T07:08:42.883Z,8904.00
2018-06-05T07:09:48.952Z,8880.00
2018-06-05T07:10:55.980Z,8936.00
2018-06-05T07:12:02.542Z,8960.00
2018-06-05T07:13:08.607Z,9052.00
2018-06-05T07:14:15.196Z,9040.00
2018-06-05T07:15:21.731Z,9032.00
2018-06-05T07:16:28.789Z,9072.00
2018-06-05T07:17:35.354Z,9148.00
2018-06-05T07:18:41.921Z,9084.00
2018-06-05T07:19:48.011Z,8912.00
2018-06-05T07:20:55.046Z,9088.00
2018-06-05T07:22:01.319Z,9512.00
2018-06-05T07:23:07.704Z,9468.00
2018-06-05T07:24:14.793Z,9532.00
2018-06-05T07:25:21.345Z,9816.00
2018-06-05T07:26:27.922Z,9840.00
2018-06-05T07:27:34.552Z,9832.00
2018-06-05T07:28:40.566Z,9616.00
2018-06-05T07:29:47.174Z,9600.00
2018-06-05T07:30:54.239Z,9596.00
2018-06-05T07:32:00.320Z,9580.00
2018-06-05T07:33:06.895Z,9532.00
2018-06-05T07:34:13.512Z,9596.00
2018-06-05T07:35:20.573Z,9596.00
2018-06-05T07:36:26.654Z,9468.00
2018-06-05T07:37:33.249Z,9548.00
2018-06-05T07:38:40.321Z,9556.00
2018-06-05T07:39:46.949Z,9532.00
2018-06-05T07:40:53.020Z,9464.00
2018-06-05T07:41:59.610Z,9448.00
2018-06-05T07:43:06.206Z,9452.00
2018-06-05T07:44:12.822Z,9472.00
2018-06-05T07:45:19.879Z,9544.00
2018-06-05T07:46:25.993Z,9504.00
2018-06-05T07:47:33.096Z,9464.00
2018-06-05T07:48:39.203Z,9440.00
2018-06-05T07:49:45.816Z,9416.00
2018-06-05T07:50:52.888Z,9400.00
2018-06-05T07:51:59.000Z,9356.00
2018-06-05T07:53:05.599Z,9384.00
2018-06-05T07:54:12.231Z,9336.00
2018-06-05T07:55:18.861Z,9336.00
2018-06-05T07:56:25.403Z,9364.00
2018-06-05T07:57:32.030Z,9428.00
2018-06-05T07:58:39.108Z,9428.00
2018-06-05T07:59:45.736Z,9416.00
2018-06-05T08:00:51.872Z,9400.00
2018-06-05T08:01:58.978Z,9428.00
2018-06-05T08:03:05.054Z,9520.00
2018-06-05T08:04:12.161Z,9620.00
2018-06-05T08:05:18.787Z,9640.00
2018-06-05T08:06:24.881Z,9632.00
2018-06-05T08:07:31.996Z,9764.00
2018-06-05T08:08:38.108Z,9704.00
2018-06-05T08:09:44.750Z,9576.00
2018-06-05T08:10:51.861Z,9600.00
2018-06-05T08:11:58.095Z,9648.00
2018-06-05T08:13:05.061Z,9764.00
2018-06-05T08:14:11.175Z,9820.00
2018-06-05T08:15:17.829Z,9828.00
2018-06-05T08:16:24.412Z,9812.00
2018-06-05T08:17:31.529Z,9924.00
2018-06-05T08:18:37.645Z,9928.00
2018-06-05T08:19:44.776Z,9932.00
2018-06-05T08:20:51.358Z,9996.00
2018-06-05T08:21:58.982Z,9960.00
2018-06-05T08:23:04.599Z,9912.00
2018-06-05T08:24:11.228Z,9940.00
2018-06-05T08:25:17.379Z,10080.00
2018-06-05T08:26:23.961Z,10064.00
2018-06-05T08:27:30.598Z,10112.00
2018-06-05T08:28:37.712Z,10224.00
2018-06-05T08:29:44.358Z,10156.00
2018-06-05T08:30:50.589Z,9968.00
2018-06-05T08:31:57.090Z,9948.00
2018-06-05T08:33:03.722Z,10160.00
2018-06-05T08:34:10.866Z,10308.00
2018-06-05T08:35:17.030Z,10308.00
2018-06-05T08:36:23.614Z,10168.00
2018-06-05T08:37:30.244Z,10156.00
2018-06-05T08:38:36.867Z,10172.00
2018-06-05T08:39:43.545Z,10344.00
2018-06-05T08:40:50.156Z,10364.00
2018-06-05T08:41:57.267Z,10376.00
2018-06-05T08:43:03.921Z,10364.00
2018-06-05T08:44:10.051Z,10260.00
2018-06-05T08:45:16.769Z,10188.00
2018-06-05T08:46:23.335Z,10352.00
2018-06-05T08:47:30.541Z,10516.00
2018-06-05T08:48:36.600Z,10564.00
2018-06-05T08:49:43.778Z,10596.00
2018-06-05T08:50:49.907Z,10672.00
2018-06-05T08:51:56.550Z,10624.00
2018-06-05T08:53:03.688Z,10656.00
2018-06-05T08:54:10.379Z,10844.00
2018-06-05T08:55:16.533Z,10884.00
2018-06-05T08:56:23.133Z,10956.00
2018-06-05T08:57:30.286Z,10912.00
2018-06-05T08:58:36.561Z,10896.00
2018-06-05T08:59:43.608Z,10988.00
2018-06-05T09:00:50.236Z,11164.00
2018-06-05T09:01:56.886Z,11180.00
2018-06-05T09:03:03.045Z,11172.00
2018-06-05T09:04:10.202Z,11196.00
2018-06-05T09:05:16.912Z,11340.00
2018-06-05T09:06:23.017Z,11524.00
2018-06-05T09:07:29.689Z,11624.00
2018-06-05T09:08:36.351Z,11564.00
2018-06-05T09:09:43.061Z,11640.00
2018-06-05T09:10:49.701Z,11848.00
2018-06-05T09:11:56.825Z,11976.00
2018-06-05T09:13:03.486Z,11904.00
2018-06-05T09:14:11.159Z,11924.00
2018-06-05T09:15:16.373Z,11868.00
2018-06-05T09:16:23.489Z,11856.00
2018-06-05T09:17:30.214Z,11684.00
2018-06-05T09:18:36.365Z,11480.00
2018-06-05T09:19:43.520Z,11288.00
2018-06-05T09:20:49.734Z,11144.00
2018-06-05T09:21:56.393Z,11000.00
2018-06-05T09:23:03.565Z,10960.00
2018-06-05T09:24:10.224Z,11056.00
2018-06-05T09:25:16.449Z,11288.00
2018-06-05T09:26:23.591Z,11380.00
2018-06-05T09:27:30.277Z,11344.00
2018-06-05T09:28:36.960Z,11364.00
2018-06-05T09:29:43.645Z,11440.00
2018-06-05T09:30:50.360Z,11492.00
2018-06-05T09:31:56.514Z,11492.00
2018-06-05T09:33:03.198Z,11548.00
2018-06-05T09:34:10.376Z,11704.00
2018-06-05T09:35:17.107Z,11724.00
2018-06-05T09:36:23.256Z,11592.00
2018-06-05T09:37:29.947Z,11400.00
2018-06-05T09:38:37.165Z,11276.00
2018-06-05T09:39:43.828Z,11272.00
2018-06-05T09:40:50.578Z,11240.00
2018-06-05T09:41:57.211Z,11312.00
2018-06-05T09:43:03.883Z,11580.00
2018-06-05T09:44:10.612Z,11620.00
2018-06-05T09:45:16.823Z,11680.00
2018-06-05T09:46:23.967Z,11608.00
2018-06-05T09:47:30.672Z,11588.00
2018-06-05T09:48:37.360Z,11624.00
2018-06-05T09:49:43.568Z,11656.00
2018-06-05T09:50:50.790Z,11736.00
2018-06-05T09:51:57.486Z,11832.00
2018-06-05T09:53:04.693Z,11836.00
2018-06-05T09:54:10.397Z,11812.00
2018-06-05T09:55:18.605Z,11792.00
2018-06-05T09:56:24.307Z,11876.00
2018-06-05T09:57:31.031Z,11984.00
2018-06-05T09:58:37.253Z,11948.00
2018-06-05T09:59:44.546Z,12012.00
2018-06-05T10:00:50.671Z,11980.00
2018-06-05T10:01:57.870Z,11984.00
2018-06-05T10:03:04.562Z,12032.00
2018-06-05T10:04:11.270Z,12152.00
2018-06-05T10:05:18.013Z,12264.00
2018-06-05T10:06:24.702Z,12160.00
2018-06-05T10:07:30.931Z,12052.00
2018-06-05T10:08:38.130Z,12056.00
2018-06-05T10:09:44.346Z,12156.00
2018-06-05T10:10:51.097Z,12132.00
2018-06-05T10:11:58.275Z,12136.00
2018-06-05T10:13:04.985Z,12144.00
2018-06-05T10:14:11.226Z,11992.00
2018-06-05T10:15:18.598Z,11956.00
2018-06-05T10:16:24.650Z,11912.00
2018-06-05T10:17:31.374Z,12052.00
2018-06-05T10:18:38.578Z,12244.00
2018-06-05T10:19:45.389Z,12264.00
2018-06-05T10:20:51.557Z,12320.00
2018-06-05T10:21:58.276Z,12312.00
2018-06-05T10:23:04.984Z,12328.00
2018-06-05T10:24:12.232Z,12324.00
2018-06-05T10:25:18.958Z,12204.00
2018-06-05T10:26:25.640Z,12284.00
2018-06-05T10:27:32.375Z,12376.00
2018-06-05T10:28:39.083Z,12388.00
2018-06-05T10:29:45.320Z,12132.00
2018-06-05T10:30:52.581Z,11992.00
2018-06-05T10:31:59.276Z,12172.00
2018-06-05T10:33:07.001Z,12176.00
2018-06-05T10:34:12.712Z,12112.00
2018-06-05T10:35:19.503Z,12160.00
2018-06-05T10:36:26.176Z,12256.00
2018-06-05T10:37:32.896Z,12244.00
2018-06-05T10:38:39.620Z,12216.00
2018-06-05T10:39:45.877Z,12304.00
2018-06-05T10:40:53.114Z,12584.00
2018-06-05T10:41:59.820Z,12600.00
2018-06-05T10:43:07.544Z,12492.00
2018-06-05T10:44:12.774Z,12328.00
2018-06-05T10:45:20.022Z,12420.00
2018-06-05T10:46:26.270Z,12604.00
2018-06-05T10:47:33.475Z,12552.00
2018-06-05T10:48:40.201Z,12852.00
2018-06-05T10:49:46.950Z,12928.00
2018-06-05T10:50:53.691Z,12664.00
2018-06-05T10:52:00.413Z,12804.00
2018-06-05T10:53:06.657Z,12940.00
2018-06-05T10:54:13.878Z,12980.00
2018-06-05T10:55:20.120Z,12828.00
2018-06-05T10:56:28.450Z,12704.00
2018-06-05T10:57:33.619Z,12516.00
2018-06-05T10:58:40.356Z,12368.00
2018-06-05T10:59:47.630Z,12416.00
2018-06-05T11:00:54.354Z,12580.00
2018-06-05T11:02:01.145Z,12660.00
2018-06-05T11:03:07.480Z,12656.00
2018-06-05T11:04:15.814Z,12736.00
2018-06-05T11:05:21.438Z,12960.00
2018-06-05T11:06:28.839Z,13080.00
2018-06-05T11:10:32.186Z,14520.00
2018-06-05T11:11:39.434Z,49280.00
2018-06-05T11:12:46.743Z,105344.00
2018-06-05T11:13:54.029Z,109472.00
2018-06-05T11:15:01.580Z,106496.00
2018-06-05T11:16:08.825Z,107680.00
2018-06-05T11:17:16.218Z,108256.00
2018-06-05T11:18:23.744Z,111072.00
2018-06-05T11:19:31.252Z,110144.00
2018-06-05T11:20:38.732Z,110304.00
2018-06-05T11:21:45.760Z,111360.00
2018-06-05T11:22:53.314Z,114784.00
2018-06-05T11:24:01.393Z,114144.00
2018-06-05T11:25:09.016Z,115360.00
2018-06-05T11:26:16.114Z,113472.00
2018-06-05T11:27:24.251Z,115776.00
2018-06-05T11:28:31.898Z,115552.00
2018-06-05T11:29:40.589Z,117664.00
2018-06-05T11:30:47.300Z,118688.00
2018-06-05T11:31:55.009Z,119008.00
2018-06-05T11:33:02.712Z,119840.00
2018-06-05T11:34:09.933Z,119104.00
2018-06-05T11:35:17.696Z,116864.00
2018-06-05T11:36:25.471Z,111712.00
2018-06-05T11:37:33.717Z,115200.00
2018-06-05T11:38:40.987Z,117760.00
2018-06-05T11:39:48.767Z,118944.00
2018-06-05T11:40:57.107Z,116800.00
2018-06-05T11:42:04.874Z,115488.00
2018-06-05T11:43:12.694Z,116608.00
2018-06-05T11:44:20.539Z,118656.00
2018-06-05T11:45:28.347Z,119264.00
2018-06-05T11:46:36.225Z,117344.00
2018-06-05T11:47:44.030Z,113792.00
2018-06-05T11:48:51.891Z,114016.00
2018-06-05T11:49:59.746Z,112640.00
2018-06-05T11:51:07.136Z,112928.00
2018-06-05T11:52:15.492Z,109664.00
2018-06-05T11:53:23.352Z,108512.00
2018-06-05T11:54:31.243Z,111616.00
2018-06-05T11:55:39.107Z,110528.00
2018-06-05T11:56:47.066Z,112128.00
2018-06-05T11:57:54.423Z,114528.00
2018-06-05T11:59:02.329Z,116384.00
2018-06-05T12:00:10.716Z,108896.00
2018-06-05T12:01:19.660Z,108032.00
2018-06-05T12:02:26.580Z,110496.00
2018-06-05T12:03:34.541Z,117248.00
2018-06-05T12:04:41.916Z,119488.00
2018-06-05T12:05:50.368Z,121120.00
2018-06-05T12:06:58.334Z,118208.00
2018-06-05T12:08:05.775Z,113440.00
2018-06-05T12:09:13.725Z,111296.00
2018-06-05T12:10:21.678Z,110016.00
2018-06-05T12:11:29.654Z,111296.00
2018-06-05T12:12:37.622Z,114016.00
2018-06-05T12:13:46.098Z,111616.00
2018-06-05T12:14:54.126Z,102592.00
2018-06-05T12:16:02.071Z,105280.00
2018-06-05T12:17:10.092Z,107456.00
2018-06-05T12:18:18.051Z,106784.00
2018-06-05T12:19:26.043Z,109120.00
2018-06-05T12:20:33.550Z,112480.00
2018-06-05T12:21:43.074Z,113120.00
2018-06-05T12:22:50.044Z,106144.00
2018-06-05T12:23:58.062Z,102368.00
2018-06-05T12:25:05.568Z,105408.00
2018-06-05T12:26:14.090Z,108672.00
2018-06-05T12:27:22.069Z,108192.00
2018-06-05T12:28:30.061Z,107584.00
2018-06-05T12:29:38.082Z,107392.00
2018-06-05T12:30:46.047Z,105856.00
2018-06-05T12:31:54.093Z,108416.00
2018-06-05T12:33:02.064Z,113888.00
2018-06-05T12:34:10.060Z,115648.00
2018-06-05T12:35:18.071Z,109920.00
2018-06-05T12:36:26.131Z,104224.00
2018-06-05T12:37:34.108Z,105184.00
2018-06-05T12:38:42.112Z,109568.00
2018-06-05T12:39:50.118Z,113376.00
2018-06-05T12:40:58.154Z,112512.00
2018-06-05T12:42:06.197Z,106464.00
2018-06-05T12:43:14.192Z,105088.00
2018-06-05T12:44:22.227Z,106432.00
2018-06-05T12:45:29.766Z,109376.00
2018-06-05T12:46:38.321Z,105120.00
2018-06-05T12:47:46.409Z,107200.00
2018-06-05T12:48:55.302Z,112096.00
2018-06-05T12:50:02.326Z,115360.00
2018-06-05T12:51:11.336Z,114592.00
2018-06-05T12:52:18.388Z,114016.00
2018-06-05T12:53:25.872Z,112928.00
2018-06-05T12:54:33.871Z,112544.00
2018-06-05T12:55:42.371Z,110720.00
2018-06-05T12:56:50.401Z,107552.00
2018-06-05T12:57:58.412Z,107424.00
2018-06-05T12:59:06.357Z,107392.00
2018-06-05T13:00:14.351Z,105536.00
2018-06-05T13:01:22.328Z,105600.00
2018-06-05T13:02:31.298Z,106048.00
2018-06-05T13:03:38.255Z,103136.00
2018-06-05T13:04:45.722Z,104064.00
2018-06-05T13:05:53.702Z,105504.00
2018-06-05T13:07:02.174Z,108640.00
2018-06-05T13:08:10.096Z,109184.00
2018-06-05T13:09:18.069Z,109216.00
2018-06-05T13:10:26.033Z,109920.00
2018-06-05T13:11:34.047Z,109664.00
2018-06-05T13:12:41.971Z,108288.00
2018-06-05T13:13:49.932Z,104416.00
2018-06-05T13:14:57.468Z,108224.00
2018-06-05T13:16:05.861Z,109728.00
2018-06-05T13:17:13.392Z,109536.00
2018-06-05T13:18:21.812Z,105280.00
2018-06-05T13:19:29.787Z,107232.00
2018-06-05T13:20:38.723Z,108352.00
2018-06-05T13:21:45.722Z,101824.00
2018-06-05T13:22:53.829Z,98336.00
2018-06-05T13:24:02.642Z,104832.00
2018-06-05T13:25:09.089Z,105856.00
2018-06-05T13:26:17.571Z,105280.00
2018-06-05T13:27:25.080Z,104672.00
2018-06-05T13:28:32.990Z,106048.00
2018-06-05T13:29:41.393Z,106176.00
2018-06-05T13:30:49.352Z,107392.00
2018-06-05T13:31:57.384Z,107104.00
2018-06-05T13:33:05.234Z,106048.00
2018-06-05T13:34:13.181Z,103008.00